EW0642 Weather Reports


Display with metric or nautical units.
time (UTC)temp
F
wind
direction
speed
MPH
gust
MPH
rain 1hr
in
rain 24hr
in
rain mn
in
humidity
%
barometer
mb
20210622173506 66 285 0.0 1.0 0.07 1.34 0.53 97 1008.8
20210622173005 66 285 0.0 1.0 0.09 1.34 0.53 97 1009.0
20210622170541 66 298 0.0 1.0 0.16 1.32 0.51 97 1008.5
20210622170013 66 298 1.0 1.0 0.18 1.31 0.50 97 1008.5
20210622165021 65 356 0.0 4.0 0.20 1.30 0.49 96 1008.7
20210622164518 66 249 0.0 4.0 0.21 1.29 0.48 97 1009.1
20210622164009 65 246 0.0 4.0 0.22 1.28 0.47 96 1009.2
20210622163506 65 281 1.0 6.0 0.22 1.27 0.46 96 1009.4
20210622163021 65 290 1.0 6.0 0.22 1.25 0.44 96 1009.2
20210622162017 65 291 1.0 3.0 0.27 1.23 0.42 96 1009.0
20210622161512 65 294 0.0 4.0 0.28 1.22 0.41 96 1008.7
20210622160506 66 307 2.0 4.0 0.30 1.16 0.35 96 1009.0
20210622160044 66 308 1.0 4.0 0.28 1.12 0.32 95 1008.9
20210622155528 66 286 1.0 4.0 0.28 1.12 0.31 96 1009.0
20210622155005 67 229 0.0 2.0 0.27 1.10 0.29 96 1008.7
20210622154012 67 300 1.0 3.0 0.23 1.06 0.25 96 1008.4
20210622153505 67 294 1.0 3.0 0.21 1.04 0.23 96 1008.4
20210622153013 67 307 1.0 3.0 0.20 1.03 0.22 95 1008.5
20210622151504 68 277 0.0 1.0 0.10 0.93 0.12 95 1008.5
20210622151016 68 297 0.0 2.0 0.07 0.90 0.09 94 1008.4
20210622150504 68 303 0.0 2.0 0.02 0.85 0.04 94 1008.2
20210622145008 68 264 0.0 1.0 0.00 0.83 0.02 95 1008.0
20210622144005 69 307 0.0 2.0 0.00 0.83 0.02 94 1007.8
20210622143025 69 292 0.0 3.0 0.00 0.83 0.02 95 1007.7
20210622142004 69 288 0.0 3.0 0.00 0.83 0.02 96 1007.5
20210622141503 69 308 0.0 3.0 0.00 0.83 0.02 96 1007.5
20210622140014 69 0 0.0 0.0 0.01 0.83 0.02 96 1007.2
20210622135504 70 295 0.0 2.0 0.01 0.83 0.02 96 1007.2
20210622134527 70 292 2.0 8.0 0.01 0.83 0.02 95 1007.2
20210622133004 73 0 0.0 0.0 0.01 0.83 0.02 97 1006.9
20210622132505 73 0 0.0 0.0 0.02 0.83 0.02 98 1006.9
20210622131534 73 0 0.0 0.0 0.02 0.83 0.02 98 1006.9
20210622125006 73 0 0.0 0.0 0.01 0.82 0.01 98 1006.7
20210622124512 73 0 0.0 0.0 0.01 0.82 0.01 98 1006.5
20210622124033 73 0 0.0 0.0 0.01 0.82 0.01 98 1006.4
20210622123011 73 0 0.0 0.0 0.01 0.82 0.01 98 1006.4
20210622122012 73 0 0.0 0.0 0.00 0.81 0.00 98 1006.3
20210622121504 73 0 0.0 0.0 0.00 0.81 0.00 98 1006.2
20210622121004 73 0 0.0 0.0 0.00 0.81 0.00 98 1006.1
20210622120005 73 0 0.0 0.0 0.00 0.81 0.00 98 1006.0
20210622115514 73 0 0.0 0.0 0.00 0.81 0.00 98 1006.1
20210622115012 73 0 0.0 0.0 0.00 0.81 0.00 98 1006.1
20210622114506 73 0 0.0 0.0 0.00 0.81 0.00 98 1006.2
20210622113512 73 204 0.0 1.0 0.00 0.81 0.00 98 1006.2
20210622113008 73 0 0.0 0.0 0.00 0.81 0.00 98 1005.9
20210622112538 73 0 0.0 0.0 0.00 0.81 0.00 98 1005.8
20210622112020 73 0 0.0 0.0 0.00 0.81 0.00 98 1005.8
20210622111008 72 0 0.0 0.0 0.00 0.81 0.00 98 1005.7
20210622110018 72 0 0.0 0.0 0.00 0.81 0.00 98 1005.7
20210622105012 72 0 0.0 0.0 0.00 0.81 0.00 98 1005.5
20210622104505 71 0 0.0 0.0 0.00 0.81 0.00 98 1005.4
20210622104023 71 0 0.0 0.0 0.00 0.81 0.00 98 1005.5
20210622102506 71 0 0.0 0.0 0.00 0.81 0.00 98 1005.2
20210622102043 70 0 0.0 0.0 0.00 0.81 0.00 98 1005.1
20210622100513 70 0 0.0 0.0 0.00 0.81 0.00 98 1005.2
20210622095017 70 0 0.0 0.0 0.00 0.81 0.00 98 1005.1
20210622094007 70 0 0.0 0.0 0.00 0.81 0.00 98 1005.1
20210622093034 70 0 0.0 0.0 0.00 0.81 0.00 98 1005.0
20210622085022 70 0 0.0 0.0 0.00 0.81 0.00 98 1004.6
20210622084011 71 0 0.0 0.0 0.00 0.81 0.00 98 1004.6
20210622082008 71 0 0.0 0.0 0.00 0.81 0.00 98 1004.7
20210622081026 71 0 0.0 0.0 0.00 0.81 0.00 98 1004.7
20210622075545 71 0 0.0 0.0 0.00 0.81 0.00 98 1004.8
20210622075028 71 0 0.0 0.0 0.00 0.81 0.00 98 1004.7
20210622074504 71 0 0.0 0.0 0.00 0.81 0.00 98 1004.7
20210622074006 71 0 0.0 0.0 0.00 0.81 0.00 98 1004.7
20210622073515 71 0 0.0 0.0 0.00 0.81 0.00 98 1004.7
20210622072524 71 0 0.0 0.0 0.00 0.81 0.00 98 1004.5
20210622072004 71 0 0.0 0.0 0.00 0.81 0.00 98 1004.4
20210622071003 71 0 0.0 0.0 0.00 0.81 0.00 98 1004.5
20210622070540 71 0 0.0 0.0 0.00 0.81 0.00 98 1004.4
20210622070019 71 0 0.0 0.0 0.00 0.81 0.00 98 1004.4
20210622065027 71 0 0.0 0.0 0.00 0.81 0.00 98 1004.3
20210622064504 71 0 0.0 0.0 0.00 0.81 0.00 98 1004.2
20210622064011 71 0 0.0 0.0 0.00 0.81 0.00 97 1004.3
20210622062508 71 0 0.0 0.0 0.00 0.81 0.00 98 1004.4
20210622062008 72 0 0.0 0.0 0.00 0.81 0.00 98 1004.6
20210622061518 72 0 0.0 0.0 0.00 0.81 0.00 98 1004.6
20210622061008 71 0 0.0 0.0 0.00 0.81 0.00 98 1004.7
20210622060008 71 0 0.0 0.0 0.00 0.81 0.00 98 1004.6
20210622055514 71 0 0.0 0.0 0.00 0.81 0.00 97 1004.5
20210622055004 71 0 0.0 0.0 0.00 0.81 0.00 97 1004.5
20210622053512 72 0 0.0 0.0 0.00 0.81 0.00 97 1004.4
20210622051508 72 0 0.0 0.0 0.00 0.81 0.00 97 1004.7
20210622050512 72 0 0.0 0.0 0.00 0.81 0.00 97 1004.8
20210622050039 72 0 0.0 0.0 0.00 0.81 0.00 97 1004.8
20210622045504 72 0 0.0 0.0 0.00 0.81 0.00 97 1004.8
20210622044504 72 0 0.0 0.0 0.00 0.81 0.00 97 1004.9
20210622044017 72 0 0.0 0.0 0.00 0.81 0.00 97 1004.9
20210622043504 72 0 0.0 0.0 0.00 0.81 0.00 97 1004.9
20210622043004 72 0 0.0 0.0 0.00 0.81 0.00 97 1005.0
20210622042005 72 0 0.0 0.0 0.00 0.81 0.00 97 1005.0
20210622041012 72 0 0.0 0.0 0.03 0.81 0.00 97 1004.9
20210622035508 72 0 0.0 0.0 0.27 0.81 0.81 97 1004.9
20210622034004 72 0 0.0 0.0 0.27 0.81 0.81 97 1005.4
20210622033012 72 131 0.0 3.0 0.27 0.81 0.81 97 1005.4
20210622032508 72 174 1.0 1.0 0.27 0.81 0.81 97 1005.5
20210622032006 72 0 0.0 0.0 0.27 0.81 0.81 97 1005.3
20210622031526 72 0 0.0 0.0 0.26 0.80 0.80 97 1005.4
20210622025028 72 282 2.0 7.0 0.00 0.54 0.54 97 1006.3
20210622024505 72 278 3.0 7.0 0.00 0.54 0.54 97 1006.4
20210622023512 72 0 0.0 0.0 0.00 0.54 0.54 97 1005.0
20210622023004 72 0 0.0 0.0 0.00 0.54 0.54 97 1005.1
20210622022015 72 0 0.0 0.0 0.00 0.54 0.54 97 1005.1
20210622021017 72 0 0.0 0.0 0.00 0.54 0.54 96 1005.2
20210622015523 72 0 0.0 0.0 0.00 0.54 0.54 96 1004.8
20210622015008 72 0 0.0 0.0 0.00 0.54 0.54 96 1004.8
20210622014513 72 0 0.0 0.0 0.00 0.54 0.54 96 1004.8
20210622014004 72 0 0.0 0.0 0.00 0.54 0.54 96 1004.7
20210622013503 72 0 0.0 0.0 0.00 0.54 0.54 96 1004.3
20210622010512 73 0 0.0 0.0 0.00 0.54 0.54 96 1004.3
20210622003004 72 293 0.0 1.0 0.07 0.54 0.54 95 1004.7
20210622002012 73 292 0.0 1.0 0.08 0.54 0.54 95 1004.8
20210622000010 73 295 0.0 2.0 0.36 0.54 0.54 95 1004.1
20210621235004 73 255 1.0 4.0 0.54 0.54 0.54 95 1003.9
20210621234519 73 42 0.0 4.0 0.54 0.54 0.54 94 1003.7
20210621234017 73 27 3.0 4.0 0.54 0.54 0.54 94 1003.7
20210621233517 73 0 0.0 0.0 0.48 0.48 0.48 93 1004.2
20210621233020 74 0 0.0 0.0 0.47 0.47 0.47 93 1004.1
20210621232519 74 0 0.0 0.0 0.47 0.47 0.47 93 1004.1
20210621232004 74 294 0.0 1.0 0.46 0.46 0.46 93 1003.6
20210621231006 74 190 1.0 8.0 0.40 0.40 0.40 89 1003.9
20210621230026 77 238 3.0 15.0 0.18 0.18 0.20 84 1005.9
20210621225504 80 232 6.0 15.0 0.02 0.02 0.02 78 1005.7
20210621224516 82 274 5.0 12.0 0.00 0.00 0.00 70 1004.4
20210621223014 84 167 0.0 4.0 0.00 0.00 0.00 79 1003.2
20210621221505 84 176 1.0 5.0 0.00 0.00 0.00 78 1003.0
20210621221012 84 164 0.0 5.0 0.00 0.00 0.00 78 1002.9
20210621220506 85 112 1.0 1.0 0.00 0.00 0.00 77 1002.9
20210621220004 85 169 0.0 7.0 0.00 0.00 0.00 76 1002.9
20210621215512 85 165 0.0 7.0 0.00 0.00 0.00 76 1003.0
20210621215015 85 158 1.0 5.0 0.00 0.00 0.00 75 1003.1
20210621214536 85 150 1.0 5.0 0.00 0.00 0.00 75 1003.2
20210621213504 86 173 0.0 6.0 0.00 0.00 0.00 73 1003.1
20210621212504 87 154 1.0 11.0 0.00 0.00 0.00 71 1002.8
20210621211004 89 103 3.0 9.0 0.00 0.00 0.00 68 1002.3
20210621205534 90 127 3.0 8.0 0.00 0.00 0.00 68 1002.4
20210621205015 90 116 3.0 9.0 0.00 0.00 0.00 67 1002.5
20210621204518 90 111 2.0 9.0 0.00 0.00 0.00 67 1002.6
20210621203504 91 111 3.0 10.0 0.00 0.00 0.00 66 1002.8
20210621202528 91 130 2.0 10.0 0.00 0.00 0.00 66 1003.1
20210621202013 91 174 2.0 10.0 0.00 0.00 0.00 66 1003.4
20210621201524 92 181 2.0 9.0 0.00 0.00 0.00 66 1003.5
20210621201008 92 154 1.0 9.0 0.00 0.00 0.00 64 1003.8
20210621200531 92 130 2.0 8.0 0.00 0.00 0.00 64 1003.8
20210621195508 92 147 3.0 7.0 0.00 0.00 0.00 66 1003.9
20210621195014 91 155 1.0 7.0 0.00 0.00 0.00 66 1003.9
20210621193509 92 122 2.0 10.0 0.00 0.00 0.00 66 1004.2
20210621193018 92 111 1.0 3.0 0.00 0.00 0.00 66 1004.2
20210621192508 92 140 1.0 4.0 0.00 0.00 0.00 66 1004.1
20210621185518 92 91 1.0 5.0 0.00 0.00 0.00 64 1004.1
20210621185017 92 112 1.0 5.0 0.00 0.00 0.00 66 1004.0
20210621184507 92 124 2.0 5.0 0.00 0.00 0.00 65 1004.0
20210621184019 92 111 2.0 5.0 0.00 0.00 0.00 65 1004.1
20210621183516 92 99 2.0 5.0 0.00 0.00 0.00 64 1004.2
20210621183013 92 72 3.0 5.0 0.00 0.00 0.00 64 1004.5
20210621182535 92 89 2.0 4.0 0.00 0.00 0.00 64 1004.4
20210621181013 91 157 4.0 8.0 0.00 0.00 0.00 65 1004.5
20210621180018 91 150 3.0 5.0 0.00 0.00 0.00 67 1004.6
20210621175004 91 112 1.0 4.0 0.00 0.00 0.00 68 1004.8
20210621174507 91 117 2.0 5.0 0.00 0.00 0.00 65 1004.7